| time (UTC) | temp C | wind direction | speed KPH | gust KPH | rain 1hr cm | rain 24hr cm | rain mn cm | humidity % | barometer mb |
| 20260507120247 | 11 | 260 | 1.6 | 3.2 | 0.00 | 0.10 | 0.10 | 76 | 1010.9 |
| 20260507115743 | 11 | 278 | 1.6 | 4.8 | 0.00 | 0.10 | 0.10 | 78 | 1011.1 |
| 20260507115239 | 10 | 182 | 1.6 | 3.2 | 0.00 | 0.10 | 0.10 | 83 | 1011.0 |
| 20260507114735 | 10 | 269 | 1.6 | 3.2 | 0.00 | 0.10 | 0.10 | 84 | 1011.0 |
| 20260507114232 | 10 | 286 | 1.6 | 1.6 | 0.00 | 0.10 | 0.10 | 84 | 1010.9 |
| 20260507113730 | 9 | 255 | 1.6 | 4.8 | 0.00 | 0.10 | 0.10 | 87 | 1011.0 |
| 20260507113227 | 9 | 278 | 1.6 | 4.8 | 0.00 | 0.10 | 0.10 | 88 | 1010.9 |
| 20260507112724 | 9 | 282 | 0.0 | 0.0 | 0.00 | 0.10 | 0.10 | 89 | 1011.1 |
| 20260507112221 | 8 | 295 | 0.0 | 0.0 | 0.00 | 0.10 | 0.10 | 90 | 1010.8 |
| 20260507111718 | 8 | 236 | 1.6 | 3.2 | 0.00 | 0.10 | 0.10 | 90 | 1010.7 |
| 20260507111215 | 8 | 283 | 0.0 | 1.6 | 0.00 | 0.10 | 0.10 | 91 | 1010.9 |
| 20260507110711 | 8 | 314 | 0.0 | 3.2 | 0.00 | 0.10 | 0.10 | 91 | 1011.1 |
| 20260507110208 | 8 | 275 | 0.0 | 1.6 | 0.00 | 0.10 | 0.10 | 91 | 1010.8 |
| 20260507105705 | 8 | 287 | 0.0 | 1.6 | 0.00 | 0.10 | 0.10 | 92 | 1010.8 |
| 20260507105200 | 8 | 276 | 0.0 | 0.0 | 0.00 | 0.10 | 0.10 | 92 | 1010.6 |
| 20260507104658 | 8 | 275 | 0.0 | 0.0 | 0.00 | 0.10 | 0.10 | 92 | 1010.4 |
| 20260507104154 | 8 | 281 | 0.0 | 0.0 | 0.00 | 0.10 | 0.10 | 92 | 1010.6 |
| 20260507103650 | 8 | 275 | 0.0 | 1.6 | 0.00 | 0.10 | 0.10 | 91 | 1010.9 |
| 20260507103147 | 8 | 274 | 0.0 | 1.6 | 0.00 | 0.10 | 0.10 | 91 | 1010.7 |
| 20260507102644 | 8 | 317 | 0.0 | 1.6 | 0.00 | 0.10 | 0.10 | 91 | 1010.6 |
| 20260507102140 | 8 | 317 | 0.0 | 0.0 | 0.00 | 0.10 | 0.10 | 91 | 1010.7 |
| 20260507101636 | 8 | 291 | 0.0 | 0.0 | 0.00 | 0.10 | 0.10 | 91 | 1010.4 |
| 20260507101132 | 8 | 280 | 0.0 | 1.6 | 0.00 | 0.10 | 0.10 | 91 | 1010.2 |
| 20260507100630 | 8 | 277 | 0.0 | 1.6 | 0.00 | 0.10 | 0.10 | 91 | 1010.0 |
| 20260507100128 | 8 | 284 | 0.0 | 1.6 | 0.00 | 0.10 | 0.10 | 91 | 1010.1 |
| 20260507095626 | 8 | 286 | 0.0 | 1.6 | 0.00 | 0.10 | 0.10 | 91 | 1010.1 |
| 20260507095122 | 8 | 236 | 1.6 | 3.2 | 0.00 | 0.10 | 0.10 | 91 | 1009.9 |
| 20260507094618 | 8 | 260 | 1.6 | 1.6 | 0.00 | 0.10 | 0.10 | 91 | 1010.1 |
| 20260507094115 | 8 | 273 | 1.6 | 1.6 | 0.00 | 0.10 | 0.10 | 91 | 1010.1 |
| 20260507093612 | 8 | 214 | 1.6 | 3.2 | 0.00 | 0.10 | 0.10 | 91 | 1010.0 |
| 20260507093111 | 8 | 277 | 0.0 | 1.6 | 0.00 | 0.10 | 0.10 | 91 | 1009.8 |
| 20260507092607 | 8 | 232 | 1.6 | 3.2 | 0.18 | 0.10 | 0.10 | 91 | 1010.1 |
| 20260507092104 | 8 | 262 | 0.0 | 1.6 | 0.18 | 0.10 | 0.10 | 91 | 1009.8 |
| 20260507091601 | 8 | 262 | 0.0 | 3.2 | 0.00 | 0.08 | 0.08 | 91 | 1010.1 |
| 20260507091056 | 8 | 236 | 1.6 | 1.6 | 0.00 | 0.08 | 0.08 | 91 | 1010.3 |
| 20260507090552 | 8 | 277 | 0.0 | 0.0 | 0.00 | 0.08 | 0.08 | 90 | 1010.4 |
| 20260507090050 | 8 | 276 | 0.0 | 1.6 | 0.13 | 0.08 | 0.08 | 90 | 1010.2 |
| 20260507085547 | 9 | 277 | 0.0 | 1.6 | 0.13 | 0.08 | 0.08 | 90 | 1010.4 |
| 20260507085043 | 9 | 280 | 0.0 | 1.6 | 0.00 | 0.05 | 0.05 | 89 | 1010.6 |
| 20260507084540 | 9 | 276 | 1.6 | 3.2 | 0.00 | 0.05 | 0.05 | 89 | 1010.5 |
| 20260507084037 | 9 | 255 | 1.6 | 1.6 | 0.00 | 0.05 | 0.05 | 89 | 1010.6 |
| 20260507083533 | 9 | 267 | 0.0 | 3.2 | 0.00 | 0.05 | 0.05 | 89 | 1010.4 |
| 20260507083030 | 9 | 285 | 1.6 | 3.2 | 0.00 | 0.05 | 0.05 | 89 | 1010.6 |
| 20260507082526 | 9 | 299 | 1.6 | 4.8 | 0.00 | 0.05 | 0.05 | 89 | 1010.4 |
| 20260507082023 | 8 | 252 | 0.0 | 3.2 | 0.00 | 0.05 | 0.05 | 89 | 1010.4 |
| 20260507081519 | 9 | 303 | 1.6 | 1.6 | 0.00 | 0.05 | 0.05 | 89 | 1010.6 |
| 20260507081016 | 9 | 100 | 1.6 | 4.8 | 0.00 | 0.05 | 0.05 | 89 | 1010.5 |
| 20260507080512 | 9 | 293 | 1.6 | 1.6 | 0.00 | 0.05 | 0.05 | 89 | 1010.3 |
| 20260507080008 | 9 | 241 | 1.6 | 1.6 | 0.00 | 0.05 | 0.05 | 89 | 1010.2 |
| 20260507075504 | 9 | 277 | 1.6 | 1.6 | 0.00 | 0.05 | 0.05 | 89 | 1009.9 |
| 20260507075001 | 9 | 347 | 3.2 | 4.8 | 0.00 | 0.05 | 0.05 | 89 | 1010.1 |
| 20260507074457 | 9 | 297 | 0.0 | 1.6 | 0.00 | 0.05 | 0.05 | 88 | 1010.4 |
| 20260507073956 | 9 | 42 | 3.2 | 3.2 | 0.00 | 0.05 | 0.05 | 87 | 1010.0 |
| 20260507073451 | 9 | 13 | 6.4 | 9.7 | 0.18 | 0.05 | 0.05 | 87 | 1010.4 |
| 20260507072948 | 10 | 286 | 0.0 | 3.2 | 0.18 | 0.05 | 0.05 | 85 | 1010.0 |
| 20260507072446 | 10 | 261 | 1.6 | 3.2 | 0.18 | 0.03 | 0.03 | 82 | 1010.0 |
| 20260507071943 | 10 | 181 | 1.6 | 3.2 | 0.18 | 0.03 | 0.03 | 80 | 1010.0 |
| 20260507071440 | 10 | 252 | 1.6 | 8.0 | 0.00 | 0.00 | 0.00 | 80 | 1010.3 |
| 20260507070936 | 10 | 154 | 1.6 | 3.2 | 0.00 | 0.00 | 0.00 | 79 | 1009.9 |
| 20260507070434 | 10 | 248 | 1.6 | 1.6 | 0.00 | 0.00 | 0.00 | 78 | 1009.8 |
| 20260507065930 | 10 | 204 | 1.6 | 3.2 | 0.00 | 0.00 | 0.00 | 78 | 1009.6 |
| 20260507065427 | 10 | 271 | 0.0 | 1.6 | 0.00 | 0.00 | 0.00 | 78 | 1009.6 |
| 20260507064925 | 10 | 321 | 0.0 | 3.2 | 0.00 | 0.00 | 0.00 | 78 | 1009.5 |
| 20260507064423 | 10 | 227 | 1.6 | 3.2 | 0.00 | 0.00 | 0.00 | 78 | 1009.3 |
| 20260507063920 | 10 | 263 | 0.0 | 1.6 | 0.00 | 0.00 | 0.00 | 78 | 1009.6 |
| 20260507063417 | 10 | 215 | 1.6 | 1.6 | 0.00 | 0.00 | 0.00 | 79 | 1009.4 |
| 20260507062914 | 11 | 264 | 0.0 | 3.2 | 0.00 | 0.00 | 0.00 | 79 | 1009.4 |
| 20260507062411 | 11 | 159 | 1.6 | 1.6 | 0.00 | 0.00 | 0.00 | 79 | 1009.6 |
| 20260507061903 | 10 | 142 | 3.2 | 3.2 | 0.00 | 0.00 | 0.00 | 81 | 1009.9 |
| 20260507061401 | 11 | 254 | 1.6 | 3.2 | 0.00 | 0.00 | 0.00 | 84 | 1009.8 |
| 20260507060859 | 11 | 1 | 1.6 | 1.6 | 0.00 | 0.00 | 0.00 | 86 | 1009.7 |
| 20260507060355 | 11 | 308 | 0.0 | 1.6 | 0.00 | 0.00 | 0.00 | 85 | 1009.6 |
| 20260507055852 | 11 | 294 | 0.0 | 1.6 | 0.00 | 0.00 | 0.00 | 85 | 1009.9 |
| 20260507055347 | 11 | 232 | 1.6 | 3.2 | 0.00 | 0.00 | 0.00 | 86 | 1009.4 |
| 20260507054844 | 11 | 204 | 1.6 | 4.8 | 0.00 | 0.00 | 0.00 | 86 | 1009.6 |
| 20260507054340 | 11 | 297 | 0.0 | 1.6 | 0.00 | 0.00 | 0.00 | 85 | 1009.9 |
| 20260507053838 | 11 | 346 | 1.6 | 3.2 | 0.00 | 0.00 | 0.00 | 85 | 1009.7 |
| 20260507053335 | 11 | 273 | 1.6 | 1.6 | 0.00 | 0.00 | 0.00 | 85 | 1009.8 |
| 20260507052834 | 11 | 298 | 0.0 | 3.2 | 0.00 | 0.00 | 0.00 | 85 | 1010.0 |
| 20260507052330 | 11 | 272 | 1.6 | 3.2 | 0.00 | 0.00 | 0.00 | 85 | 1010.2 |
| 20260507051828 | 11 | 286 | 1.6 | 1.6 | 0.00 | 0.00 | 0.00 | 85 | 1010.1 |
| 20260507051326 | 12 | 19 | 1.6 | 3.2 | 0.00 | 0.00 | 0.00 | 85 | 1010.0 |
| 20260507050822 | 11 | 176 | 4.8 | 8.0 | 0.00 | 0.00 | 0.00 | 85 | 1010.0 |
| 20260507050318 | 12 | 215 | 1.6 | 8.0 | 0.00 | 0.00 | 0.00 | 87 | 1010.0 |
| 20260507045816 | 12 | 284 | 1.6 | 1.6 | 0.00 | 0.00 | 0.00 | 88 | 1010.0 |
| 20260507045312 | 12 | 206 | 0.0 | 3.2 | 0.00 | 0.00 | 0.00 | 87 | 1009.9 |
| 20260507044809 | 12 | 273 | 0.0 | 1.6 | 0.00 | 0.00 | 0.00 | 88 | 1009.7 |
| 20260507044306 | 12 | 292 | 0.0 | 3.2 | 0.00 | 0.00 | 0.00 | 89 | 1009.9 |
| 20260507043802 | 12 | 274 | 0.0 | 1.6 | 0.00 | 0.00 | 0.00 | 90 | 1009.9 |
| 20260507043258 | 12 | 282 | 0.0 | 3.2 | 0.00 | 0.00 | 0.00 | 90 | 1009.9 |
| 20260507042755 | 13 | 239 | 0.0 | 8.0 | 0.00 | 0.00 | 0.00 | 90 | 1009.8 |
| 20260507042250 | 13 | 293 | 0.0 | 1.6 | 0.00 | 0.00 | 0.00 | 90 | 1009.5 |
| 20260507041748 | 13 | 292 | 0.0 | 1.6 | 0.00 | 0.00 | 0.00 | 90 | 1009.7 |
| 20260507041244 | 13 | 287 | 0.0 | 3.2 | 0.00 | 0.00 | 0.00 | 89 | 1009.6 |
| 20260507040741 | 13 | 231 | 1.6 | 1.6 | 0.00 | 0.00 | 0.00 | 89 | 1009.7 |
| 20260507040237 | 13 | 280 | 0.0 | 3.2 | 0.00 | 0.00 | 0.00 | 89 | 1009.8 |
| 20260507035733 | 13 | 283 | 1.6 | 8.0 | 0.00 | 0.33 | 0.33 | 89 | 1009.8 |
| 20260507035228 | 13 | 299 | 1.6 | 8.0 | 0.00 | 0.33 | 0.33 | 89 | 1009.9 |
| 20260507034726 | 13 | 302 | 0.0 | 3.2 | 0.00 | 0.33 | 0.33 | 89 | 1010.0 |
| 20260507034223 | 13 | 259 | 0.0 | 3.2 | 0.00 | 0.33 | 0.33 | 90 | 1009.8 |
| 20260507033722 | 13 | 267 | 0.0 | 3.2 | 0.00 | 0.33 | 0.33 | 90 | 1009.8 |
| 20260507033219 | 13 | 294 | 1.6 | 3.2 | 0.00 | 0.33 | 0.33 | 91 | 1009.7 |
| 20260507032716 | 13 | 91 | 3.2 | 4.8 | 0.00 | 0.33 | 0.33 | 92 | 1009.5 |
| 20260507032212 | 13 | 278 | 0.0 | 11.3 | 0.00 | 0.33 | 0.33 | 94 | 1009.5 |
| 20260507031709 | 14 | 16 | 1.6 | 3.2 | 0.00 | 0.33 | 0.33 | 94 | 1009.4 |
| 20260507031205 | 14 | 251 | 0.0 | 4.8 | 0.00 | 0.33 | 0.33 | 95 | 1009.2 |
| 20260507030702 | 14 | 292 | 1.6 | 3.2 | 0.00 | 0.33 | 0.33 | 95 | 1009.0 |
| 20260507030200 | 15 | 304 | 0.0 | 3.2 | 0.00 | 0.33 | 0.33 | 95 | 1009.3 |
| 20260507025657 | 14 | 294 | 0.0 | 1.6 | 0.00 | 0.33 | 0.33 | 95 | 1009.0 |
| 20260507025154 | 14 | 298 | 3.2 | 3.2 | 0.00 | 0.33 | 0.33 | 95 | 1009.0 |
| 20260507024652 | 14 | 302 | 0.0 | 0.0 | 0.00 | 0.33 | 0.33 | 95 | 1009.1 |
| 20260507024149 | 14 | 289 | 1.6 | 3.2 | 0.00 | 0.33 | 0.33 | 95 | 1008.9 |
| 20260507023644 | 14 | 304 | 0.0 | 0.0 | 0.00 | 0.33 | 0.33 | 95 | 1009.0 |
| 20260507023142 | 14 | 304 | 0.0 | 1.6 | 0.00 | 0.33 | 0.33 | 95 | 1008.8 |
| 20260507022639 | 14 | 268 | 0.0 | 3.2 | 0.00 | 0.33 | 0.33 | 95 | 1008.7 |
| 20260507022134 | 14 | 286 | 0.0 | 3.2 | 0.00 | 0.33 | 0.33 | 95 | 1008.9 |
| 20260507021631 | 14 | 309 | 1.6 | 3.2 | 0.00 | 0.33 | 0.33 | 95 | 1008.9 |
| 20260507021126 | 14 | 286 | 1.6 | 1.6 | 0.00 | 0.33 | 0.33 | 95 | 1008.9 |
| 20260507020625 | 14 | 263 | 0.0 | 0.0 | 0.00 | 0.33 | 0.33 | 95 | 1008.9 |
| 20260507020121 | 14 | 243 | 1.6 | 1.6 | 0.00 | 0.33 | 0.33 | 95 | 1008.9 |
| 20260507015619 | 14 | 253 | 1.6 | 3.2 | 0.00 | 0.33 | 0.33 | 95 | 1008.6 |
| 20260507015116 | 14 | 299 | 0.0 | 1.6 | 0.00 | 0.33 | 0.33 | 95 | 1008.8 |
| 20260507014613 | 14 | 238 | 0.0 | 1.6 | 0.00 | 0.33 | 0.33 | 95 | 1009.0 |
| 20260507014109 | 14 | 345 | 1.6 | 3.2 | 0.00 | 0.33 | 0.33 | 95 | 1009.0 |
| 20260507013606 | 14 | 228 | 1.6 | 1.6 | 0.00 | 0.33 | 0.33 | 95 | 1009.0 |
| 20260507013103 | 14 | 295 | 0.0 | 1.6 | 0.00 | 0.33 | 0.33 | 95 | 1008.9 |
| 20260507012600 | 14 | 300 | 1.6 | 4.8 | 0.00 | 0.33 | 0.33 | 95 | 1008.5 |
| 20260507012055 | 14 | 254 | 1.6 | 1.6 | 0.00 | 0.33 | 0.33 | 95 | 1008.8 |
| 20260507011554 | 14 | 294 | 0.0 | 1.6 | 0.00 | 0.33 | 0.33 | 95 | 1008.6 |
| 20260507011050 | 14 | 288 | 1.6 | 1.6 | 0.00 | 0.33 | 0.33 | 95 | 1008.8 |
| 20260507010544 | 14 | 219 | 3.2 | 3.2 | 0.00 | 0.33 | 0.33 | 95 | 1008.9 |
| 20260507010041 | 14 | 297 | 0.0 | 1.6 | 0.00 | 0.33 | 0.33 | 95 | 1009.0 |
| 20260507005538 | 14 | 303 | 1.6 | 1.6 | 0.00 | 0.33 | 0.33 | 95 | 1009.1 |
| 20260507005034 | 14 | 257 | 0.0 | 1.6 | 0.00 | 0.33 | 0.33 | 95 | 1009.1 |
| 20260507004532 | 14 | 280 | 0.0 | 3.2 | 0.00 | 0.33 | 0.33 | 95 | 1008.8 |
| 20260507004029 | 14 | 291 | 0.0 | 3.2 | 0.00 | 0.33 | 0.33 | 95 | 1009.1 |
| 20260507003524 | 14 | 285 | 0.0 | 1.6 | 0.00 | 0.33 | 0.33 | 95 | 1009.0 |
| 20260507003020 | 14 | 285 | 0.0 | 1.6 | 0.00 | 0.33 | 0.33 | 95 | 1009.1 |
| 20260507002516 | 14 | 66 | 1.6 | 3.2 | 0.00 | 0.33 | 0.33 | 95 | 1008.9 |
| 20260507002013 | 14 | 298 | 1.6 | 4.8 | 0.00 | 0.33 | 0.33 | 95 | 1009.0 |
| 20260507001509 | 14 | 293 | 1.6 | 3.2 | 0.00 | 0.33 | 0.33 | 95 | 1009.0 |
| 20260507001007 | 14 | 2 | 1.6 | 11.3 | 0.00 | 0.33 | 0.33 | 95 | 1009.0 |
| 20260507000503 | 14 | 266 | 3.2 | 3.2 | 0.00 | 0.33 | 0.33 | 95 | 1008.7 |
| 20260506235958 | 14 | 270 | 1.6 | 1.6 | 0.00 | 0.33 | 0.33 | 95 | 1008.9 |
| 20260506235456 | 14 | 295 | 0.0 | 3.2 | 0.00 | 0.33 | 0.33 | 95 | 1008.8 |
| 20260506234951 | 14 | 279 | 0.0 | 3.2 | 0.00 | 0.33 | 0.33 | 95 | 1008.7 |
| 20260506234449 | 14 | 294 | 0.0 | 3.2 | 0.00 | 0.33 | 0.33 | 95 | 1008.7 |
| 20260506233946 | 14 | 320 | 0.0 | 3.2 | 0.00 | 0.33 | 0.33 | 95 | 1008.6 |
| 20260506233443 | 14 | 252 | 0.0 | 4.8 | 0.00 | 0.33 | 0.33 | 95 | 1008.7 |
| 20260506232939 | 14 | 248 | 1.6 | 8.0 | 0.00 | 0.33 | 0.33 | 95 | 1008.7 |
| 20260506232436 | 14 | 272 | 0.0 | 1.6 | 0.00 | 0.33 | 0.33 | 95 | 1008.8 |
| 20260506231931 | 14 | 293 | 0.0 | 0.0 | 0.00 | 0.33 | 0.33 | 94 | 1008.7 |
| 20260506231429 | 14 | 241 | 1.6 | 3.2 | 0.00 | 0.33 | 0.33 | 94 | 1008.7 |
| 20260506230926 | 14 | 281 | 0.0 | 1.6 | 0.00 | 0.33 | 0.33 | 94 | 1008.4 |
| 20260506230423 | 14 | 261 | 1.6 | 1.6 | 0.00 | 0.33 | 0.33 | 94 | 1008.7 |
| 20260506225919 | 14 | 279 | 0.0 | 0.0 | 0.13 | 0.33 | 0.33 | 94 | 1008.5 |
| 20260506225417 | 14 | 291 | 1.6 | 1.6 | 0.18 | 0.30 | 0.30 | 94 | 1008.8 |
| 20260506224914 | 14 | 289 | 0.0 | 1.6 | 0.30 | 0.30 | 0.30 | 94 | 1008.5 |
| 20260506224411 | 15 | 282 | 0.0 | 1.6 | 0.13 | 0.28 | 0.28 | 94 | 1008.7 |
| 20260506223907 | 15 | 268 | 0.0 | 3.2 | 0.18 | 0.25 | 0.25 | 94 | 1008.8 |
| 20260506223402 | 15 | 276 | 0.0 | 1.6 | 0.18 | 0.25 | 0.25 | 94 | 1008.6 |
| 20260506222900 | 15 | 280 | 1.6 | 3.2 | 0.00 | 0.23 | 0.23 | 94 | 1008.8 |
| 20260506222356 | 15 | 285 | 1.6 | 1.6 | 0.00 | 0.23 | 0.23 | 94 | 1008.8 |
| 20260506221853 | 15 | 228 | 1.6 | 1.6 | 0.00 | 0.23 | 0.23 | 93 | 1008.8 |
| 20260506221350 | 15 | 232 | 1.6 | 3.2 | 0.00 | 0.23 | 0.23 | 93 | 1009.1 |
| 20260506220848 | 15 | 283 | 0.0 | 3.2 | 0.00 | 0.23 | 0.23 | 93 | 1008.7 |
| 20260506220343 | 15 | 286 | 0.0 | 4.8 | 0.00 | 0.23 | 0.23 | 93 | 1008.9 |
| 20260506215840 | 15 | 266 | 1.6 | 1.6 | 0.00 | 0.23 | 0.23 | 93 | 1009.0 |
| 20260506215336 | 15 | 277 | 1.6 | 3.2 | 0.13 | 0.23 | 0.23 | 93 | 1008.9 |
| 20260506214827 | 15 | 253 | 3.2 | 3.2 | 0.13 | 0.23 | 0.23 | 93 | 1009.0 |
| 20260506214323 | 15 | 225 | 1.6 | 1.6 | 0.00 | 0.20 | 0.20 | 92 | 1008.9 |
| 20260506213822 | 15 | 275 | 0.0 | 1.6 | 0.00 | 0.20 | 0.20 | 92 | 1009.0 |
| 20260506213319 | 15 | 288 | 1.6 | 12.9 | 0.00 | 0.20 | 0.20 | 92 | 1009.1 |
| 20260506212816 | 15 | 290 | 1.6 | 4.8 | 0.00 | 0.20 | 0.20 | 92 | 1009.1 |
| 20260506212312 | 15 | 284 | 0.0 | 3.2 | 0.00 | 0.20 | 0.20 | 92 | 1009.4 |
| 20260506211807 | 15 | 285 | 1.6 | 4.8 | 0.18 | 0.20 | 0.20 | 92 | 1009.5 |
| 20260506211303 | 15 | 303 | 3.2 | 8.0 | 0.18 | 0.20 | 0.20 | 92 | 1009.3 |
| 20260506210800 | 15 | 284 | 0.0 | 3.2 | 0.00 | 0.18 | 0.18 | 92 | 1009.3 |
| 20260506210257 | 15 | 255 | 3.2 | 3.2 | 0.00 | 0.18 | 0.18 | 91 | 1009.3 |
| 20260506205754 | 15 | 283 | 0.0 | 4.8 | 0.00 | 0.18 | 0.18 | 91 | 1009.5 |
| 20260506205250 | 15 | 112 | 9.7 | 11.3 | 0.00 | 0.18 | 0.18 | 91 | 1009.6 |
| 20260506204747 | 15 | 271 | 1.6 | 8.0 | 0.00 | 0.18 | 0.18 | 91 | 1009.4 |
| 20260506204245 | 15 | 216 | 0.0 | 3.2 | 0.00 | 0.18 | 0.18 | 91 | 1009.6 |
| 20260506203742 | 15 | 269 | 0.0 | 1.6 | 0.00 | 0.18 | 0.18 | 91 | 1009.6 |
| 20260506203239 | 15 | 43 | 1.6 | 3.2 | 0.00 | 0.18 | 0.18 | 91 | 1009.6 |
| 20260506202736 | 15 | 263 | 1.6 | 9.7 | 0.00 | 0.18 | 0.18 | 91 | 1009.8 |
| 20260506202233 | 15 | 268 | 1.6 | 3.2 | 0.00 | 0.18 | 0.18 | 90 | 1009.5 |
| 20260506201730 | 15 | 261 | 1.6 | 3.2 | 0.00 | 0.18 | 0.18 | 90 | 1009.8 |
| 20260506201227 | 15 | 313 | 3.2 | 3.2 | 0.00 | 0.18 | 0.18 | 90 | 1009.7 |
| 20260506200724 | 15 | 216 | 1.6 | 9.7 | 0.13 | 0.18 | 0.18 | 90 | 1009.7 |
| 20260506200220 | 15 | 276 | 4.8 | 8.0 | 0.00 | 0.15 | 0.15 | 89 | 1009.6 |
| 20260506195716 | 15 | 300 | 3.2 | 4.8 | 0.00 | 0.15 | 0.15 | 90 | 1009.8 |
| 20260506195213 | 15 | 285 | 0.0 | 4.8 | 0.00 | 0.15 | 0.15 | 90 | 1009.9 |
| 20260506194710 | 15 | 192 | 3.2 | 4.8 | 0.00 | 0.15 | 0.15 | 90 | 1009.7 |
| 20260506194207 | 15 | 294 | 1.6 | 11.3 | 0.00 | 0.15 | 0.15 | 90 | 1009.8 |
| 20260506193705 | 16 | 284 | 0.0 | 3.2 | 0.00 | 0.15 | 0.15 | 90 | 1009.8 |
| 20260506193201 | 16 | 285 | 0.0 | 3.2 | 0.18 | 0.15 | 0.15 | 89 | 1009.8 |
| 20260506192658 | 16 | 286 | 1.6 | 4.8 | 0.18 | 0.15 | 0.15 | 89 | 1009.7 |
| 20260506192154 | 16 | 318 | 1.6 | 4.8 | 0.13 | 0.13 | 0.13 | 89 | 1009.9 |
| 20260506191651 | 16 | 145 | 1.6 | 11.3 | 0.13 | 0.13 | 0.13 | 89 | 1009.9 |
| 20260506191147 | 16 | 290 | 0.0 | 3.2 | 0.18 | 0.10 | 0.10 | 88 | 1009.9 |
| 20260506190645 | 16 | 261 | 3.2 | 4.8 | 0.18 | 0.10 | 0.10 | 87 | 1009.9 |
| 20260506190141 | 16 | 187 | 3.2 | 3.2 | 0.00 | 0.08 | 0.08 | 87 | 1009.8 |
| 20260506185638 | 16 | 258 | 1.6 | 3.2 | 0.13 | 0.08 | 0.08 | 86 | 1009.9 |
| 20260506185134 | 16 | 301 | 1.6 | 3.2 | 0.13 | 0.08 | 0.08 | 85 | 1010.0 |
| 20260506184632 | 17 | 236 | 1.6 | 3.2 | 0.18 | 0.05 | 0.05 | 84 | 1009.8 |
| 20260506184129 | 17 | 307 | 3.2 | 4.8 | 0.18 | 0.05 | 0.05 | 82 | 1010.1 |
| 20260506183626 | 17 | 316 | 0.0 | 4.8 | 0.18 | 0.03 | 0.03 | 81 | 1010.3 |
| 20260506183122 | 17 | 252 | 1.6 | 3.2 | 0.18 | 0.03 | 0.03 | 80 | 1010.3 |
| 20260506182620 | 18 | 113 | 1.6 | 4.8 | 0.00 | 0.00 | 0.00 | 79 | 1010.2 |
| 20260506182116 | 18 | 305 | 0.0 | 3.2 | 0.00 | 0.00 | 0.00 | 77 | 1010.6 |
| 20260506181614 | 18 | 303 | 1.6 | 3.2 | 0.00 | 0.00 | 0.00 | 76 | 1010.4 |
| 20260506181111 | 18 | 287 | 1.6 | 4.8 | 0.00 | 0.00 | 0.00 | 75 | 1010.2 |
| 20260506180608 | 19 | 284 | 1.6 | 4.8 | 0.00 | 0.00 | 0.00 | 74 | 1010.3 |
| 20260506180105 | 19 | 294 | 4.8 | 12.9 | 0.00 | 0.00 | 0.00 | 71 | 1010.4 |
| 20260506175601 | 20 | 321 | 1.6 | 22.5 | 0.00 | 0.00 | 0.00 | 70 | 1010.7 |
| 20260506175057 | 20 | 297 | 4.8 | 9.7 | 0.00 | 0.00 | 0.00 | 68 | 1010.5 |
| 20260506174556 | 20 | 295 | 6.4 | 14.5 | 0.00 | 0.00 | 0.00 | 67 | 1010.6 |
| 20260506174051 | 21 | 301 | 1.6 | 4.8 | 0.00 | 0.00 | 0.00 | 66 | 1010.4 |
| 20260506173549 | 21 | 317 | 4.8 | 8.0 | 0.00 | 0.00 | 0.00 | 63 | 1010.5 |
| 20260506173046 | 22 | 234 | 1.6 | 4.8 | 0.00 | 0.00 | 0.00 | 59 | 1010.2 |
| 20260506172544 | 22 | 246 | 1.6 | 12.9 | 0.00 | 0.00 | 0.00 | 59 | 1010.2 |
| 20260506172040 | 22 | 288 | 3.2 | 9.7 | 0.00 | 0.00 | 0.00 | 58 | 1010.3 |
| 20260506171537 | 22 | 354 | 9.7 | 12.9 | 0.00 | 0.00 | 0.00 | 57 | 1010.1 |
| 20260506171035 | 22 | 249 | 3.2 | 8.0 | 0.00 | 0.00 | 0.00 | 57 | 1010.2 |
| 20260506170532 | 22 | 324 | 3.2 | 9.7 | 0.00 | 0.00 | 0.00 | 57 | 1010.2 |
| 20260506170024 | 22 | 296 | 4.8 | 9.7 | 0.00 | 0.00 | 0.00 | 56 | 1010.2 |
| 20260506165522 | 22 | 196 | 4.8 | 8.0 | 0.00 | 0.00 | 0.00 | 57 | 1010.6 |
| 20260506165018 | 22 | 314 | 4.8 | 9.7 | 0.00 | 0.00 | 0.00 | 57 | 1010.5 |
| 20260506164515 | 22 | 125 | 6.4 | 12.9 | 0.00 | 0.00 | 0.00 | 56 | 1010.7 |
| 20260506164012 | 22 | 264 | 8.0 | 14.5 | 0.00 | 0.00 | 0.00 | 57 | 1010.6 |
| 20260506163507 | 21 | 308 | 4.8 | 8.0 | 0.00 | 0.00 | 0.00 | 60 | 1010.7 |
| 20260506163002 | 21 | 281 | 9.7 | 20.9 | 0.00 | 0.00 | 0.00 | 58 | 1010.9 |
| 20260506162459 | 21 | 293 | 1.6 | 17.7 | 0.00 | 0.00 | 0.00 | 60 | 1010.9 |
| 20260506161951 | 22 | 267 | 3.2 | 14.5 | 0.00 | 0.00 | 0.00 | 59 | 1010.7 |
| 20260506161449 | 21 | 301 | 1.6 | 9.7 | 0.00 | 0.00 | 0.00 | 58 | 1010.7 |
| 20260506160946 | 21 | 274 | 4.8 | 8.0 | 0.00 | 0.00 | 0.00 | 59 | 1010.8 |
| 20260506160444 | 21 | 34 | 6.4 | 9.7 | 0.00 | 0.00 | 0.00 | 59 | 1011.2 |
| 20260506155941 | 21 | 338 | 3.2 | 9.7 | 0.00 | 0.00 | 0.00 | 59 | 1011.2 |
| 20260506155438 | 21 | 306 | 1.6 | 11.3 | 0.00 | 0.00 | 0.00 | 60 | 1011.2 |
| 20260506153605 | 21 | 190 | 4.8 | 8.0 | 0.00 | 0.00 | 0.00 | 62 | 1011.4 |
| 20260506153103 | 21 | 165 | 1.6 | 9.7 | 0.00 | 0.00 | 0.00 | 62 | 1011.5 |
| 20260506152559 | 21 | 263 | 1.6 | 3.2 | 0.00 | 0.00 | 0.00 | 62 | 1011.5 |
| 20260506152057 | 21 | 324 | 3.2 | 4.8 | 0.00 | 0.00 | 0.00 | 62 | 1011.6 |
| 20260506151555 | 21 | 291 | 3.2 | 11.3 | 0.00 | 0.00 | 0.00 | 62 | 1011.8 |
| 20260506151052 | 21 | 257 | 1.6 | 3.2 | 0.00 | 0.00 | 0.00 | 62 | 1012.0 |
| 20260506150548 | 21 | 78 | 4.8 | 8.0 | 0.00 | 0.00 | 0.00 | 62 | 1011.8 |
| 20260506150045 | 21 | 257 | 8.0 | 11.3 | 0.00 | 0.00 | 0.00 | 62 | 1011.9 |
| 20260506145542 | 21 | 198 | 3.2 | 8.0 | 0.00 | 0.00 | 0.00 | 63 | 1012.0 |
| 20260506145040 | 21 | 153 | 4.8 | 8.0 | 0.00 | 0.00 | 0.00 | 63 | 1011.9 |
| 20260506144536 | 21 | 338 | 4.8 | 8.0 | 0.00 | 0.00 | 0.00 | 64 | 1011.8 |
| 20260506144033 | 21 | 278 | 1.6 | 3.2 | 0.00 | 0.00 | 0.00 | 64 | 1011.9 |
| 20260506143531 | 21 | 295 | 1.6 | 3.2 | 0.00 | 0.00 | 0.00 | 64 | 1011.8 |
| 20260506143029 | 20 | 216 | 3.2 | 11.3 | 0.00 | 0.00 | 0.00 | 66 | 1012.0 |
| 20260506142527 | 20 | 216 | 1.6 | 4.8 | 0.00 | 0.00 | 0.00 | 66 | 1012.0 |
| 20260506142025 | 20 | 174 | 0.0 | 8.0 | 0.00 | 0.00 | 0.00 | 66 | 1011.9 |
| 20260506141522 | 20 | 283 | 3.2 | 8.0 | 0.00 | 0.00 | 0.00 | 67 | 1011.9 |
| 20260506141021 | 20 | 298 | 3.2 | 3.2 | 0.00 | 0.00 | 0.00 | 68 | 1012.0 |
| 20260506140517 | 20 | 295 | 3.2 | 8.0 | 0.00 | 0.00 | 0.00 | 69 | 1011.9 |
| 20260506140015 | 19 | 296 | 1.6 | 9.7 | 0.00 | 0.00 | 0.00 | 70 | 1011.9 |
| 20260506135511 | 20 | 299 | 3.2 | 4.8 | 0.00 | 0.00 | 0.00 | 70 | 1011.8 |
| 20260506135008 | 20 | 285 | 1.6 | 8.0 | 0.00 | 0.00 | 0.00 | 69 | 1012.0 |
| 20260506134504 | 20 | 303 | 4.8 | 8.0 | 0.00 | 0.00 | 0.00 | 70 | 1012.2 |
| 20260506134000 | 18 | 230 | 3.2 | 3.2 | 0.00 | 0.00 | 0.00 | 71 | 1011.8 |
| 20260506133457 | 18 | 352 | 3.2 | 4.8 | 0.00 | 0.00 | 0.00 | 72 | 1012.1 |
| 20260506132954 | 18 | 164 | 3.2 | 4.8 | 0.00 | 0.00 | 0.00 | 71 | 1012.0 |
| 20260506132451 | 18 | 312 | 3.2 | 12.9 | 0.00 | 0.00 | 0.00 | 72 | 1012.0 |
| 20260506131949 | 18 | 182 | 0.0 | 4.8 | 0.00 | 0.00 | 0.00 | 73 | 1012.6 |
| 20260506131445 | 18 | 263 | 0.0 | 1.6 | 0.00 | 0.00 | 0.00 | 72 | 1012.7 |
| 20260506130942 | 18 | 143 | 1.6 | 4.8 | 0.00 | 0.00 | 0.00 | 73 | 1012.6 |
| 20260506130439 | 17 | 261 | 1.6 | 1.6 | 0.00 | 0.00 | 0.00 | 74 | 1012.6 |
| 20260506125937 | 17 | 146 | 3.2 | 4.8 | 0.00 | 0.00 | 0.00 | 74 | 1012.6 |
| 20260506125435 | 17 | 293 | 0.0 | 8.0 | 0.00 | 0.00 | 0.00 | 75 | 1012.6 |
| 20260506124933 | 17 | 186 | 3.2 | 4.8 | 0.00 | 0.00 | 0.00 | 74 | 1012.3 |
| 20260506124430 | 17 | 297 | 1.6 | 3.2 | 0.00 | 0.00 | 0.00 | 74 | 1012.8 |
| 20260506123928 | 18 | 286 | 0.0 | 3.2 | 0.00 | 0.00 | 0.00 | 73 | 1012.3 |
| 20260506123425 | 18 | 300 | 3.2 | 12.9 | 0.00 | 0.00 | 0.00 | 73 | 1012.7 |
| 20260506122923 | 17 | 291 | 1.6 | 3.2 | 0.00 | 0.00 | 0.00 | 73 | 1012.4 |
| 20260506122419 | 17 | 265 | 1.6 | 8.0 | 0.00 | 0.00 | 0.00 | 74 | 1012.7 |
| 20260506121918 | 17 | 275 | 0.0 | 4.8 | 0.00 | 0.00 | 0.00 | 74 | 1012.7 |
| 20260506121414 | 17 | 108 | 3.2 | 9.7 | 0.00 | 0.00 | 0.00 | 73 | 1012.7 |
| 20260506120911 | 17 | 281 | 0.0 | 1.6 | 0.00 | 0.00 | 0.00 | 74 | 1012.6 |